KEHC

East Cameron 278

East Cameron 278, Louisiana, USA
METAR KEHC 250035Z AUTO 09013KT 8SM CLR 26/22 A2999 RMK A01
Observed Flight Rules
May-25 @ 00:35 UTC (24 minutes ago) Visual Flight Rules
Wind Visibility Clouds
90° at 13 knots 8 miles
  • Clear skies
Temperatures Readings
Current 26°C / 79°F
Dewpoint 22°C / 72°F
Humidity 79%
Altimeter 29.99" Hg
Pressure 1016 hPa
Elevation 31
METAR KEHC 250035Z AUTO 09013KT 8SM CLR 26/22 A2999 RMK A01
Observed Flight Rules
May-25 @ 00:35 UTC
(24 minutes ago)
VFR
Wind Visibility
90° at 13 knots 8 miles
Clouds
  • Clear skies
Temperature Dewpoint
26°C / 79°F 22°C / 72°F
Humidity Altimeter Pressure
79% 29.99" Hg 1016 hPa